createdAt,value
2018-08-08T00:02:17.560Z,24.10
2018-08-08T00:04:46.047Z,24.20
2018-08-08T00:07:14.168Z,24.20
2018-08-08T00:09:42.282Z,24.10
2018-08-08T00:12:10.648Z,24.10
2018-08-08T00:14:38.806Z,24.10
2018-08-08T00:17:07.350Z,24.00
2018-08-08T00:19:35.490Z,23.90
2018-08-08T00:22:03.610Z,23.80
2018-08-08T00:24:31.748Z,23.70
2018-08-08T00:26:59.868Z,23.70
2018-08-08T00:29:28.002Z,23.70
2018-08-08T00:31:56.113Z,23.70
2018-08-08T00:34:24.248Z,23.60
2018-08-08T00:36:52.359Z,23.60
2018-08-08T00:39:20.489Z,23.50
2018-08-08T00:41:48.684Z,23.40
2018-08-08T00:44:16.809Z,23.30
2018-08-08T00:46:44.919Z,23.30
2018-08-08T00:49:13.038Z,23.30
2018-08-08T00:51:41.167Z,23.20
2018-08-08T00:54:09.286Z,23.20
2018-08-08T00:56:37.400Z,23.10
2018-08-08T00:59:05.527Z,23.30
2018-08-08T01:01:33.646Z,23.30
2018-08-08T01:04:01.773Z,23.30
2018-08-08T01:09:02.843Z,23.40
2018-08-08T01:11:30.944Z,23.60
2018-08-08T01:13:59.066Z,23.70
2018-08-08T01:16:27.170Z,23.90
2018-08-08T01:18:55.296Z,24.00
2018-08-08T01:21:23.409Z,24.10
2018-08-08T01:23:51.559Z,24.30
2018-08-08T01:26:19.679Z,24.50
2018-08-08T01:28:47.807Z,24.50
2018-08-08T01:31:15.913Z,24.60
2018-08-08T01:33:44.039Z,24.50
2018-08-08T01:36:12.161Z,24.60
2018-08-08T01:38:40.286Z,24.50
2018-08-08T01:41:08.430Z,24.50
2018-08-08T01:43:36.558Z,24.40
2018-08-08T01:46:04.692Z,24.40
2018-08-08T01:48:32.806Z,24.40
2018-08-08T01:51:00.926Z,24.50
2018-08-08T01:53:29.044Z,24.40
2018-08-08T01:55:57.178Z,24.40
2018-08-08T01:58:25.281Z,24.40
2018-08-08T02:00:53.408Z,24.40
2018-08-08T02:03:21.522Z,24.40
2018-08-08T02:05:49.633Z,24.50
2018-08-08T02:08:17.750Z,24.50
2018-08-08T02:10:45.881Z,24.50
2018-08-08T02:13:14.028Z,24.60
2018-08-08T02:15:42.167Z,24.60
2018-08-08T02:18:10.280Z,24.70
2018-08-08T02:20:38.424Z,24.60
2018-08-08T02:23:06.559Z,24.60
2018-08-08T02:25:34.695Z,24.60
2018-08-08T02:28:02.804Z,24.60
2018-08-08T02:30:31.411Z,24.60
2018-08-08T02:32:59.532Z,24.50
2018-08-08T02:35:27.665Z,24.40
2018-08-08T02:37:55.806Z,24.40
2018-08-08T02:40:23.914Z,24.30
2018-08-08T02:42:52.031Z,24.20
2018-08-08T02:45:20.613Z,24.30
2018-08-08T02:47:48.751Z,24.20
2018-08-08T02:50:18.342Z,24.20
2018-08-08T02:52:46.456Z,24.10
2018-08-08T02:55:14.838Z,23.90
2018-08-08T02:57:43.257Z,23.90
2018-08-08T03:00:12.869Z,23.60
2018-08-08T03:02:41.177Z,23.60
2018-08-08T03:05:10.238Z,23.60
2018-08-08T03:07:38.553Z,23.50
2018-08-08T03:10:08.434Z,23.60
2018-08-08T03:12:36.547Z,23.60
2018-08-08T03:15:06.541Z,23.50
2018-08-08T03:17:34.650Z,23.50
2018-08-08T03:20:02.978Z,23.40
2018-08-08T03:22:31.095Z,23.40
2018-08-08T03:24:59.194Z,23.30
2018-08-08T03:27:27.624Z,23.20
2018-08-08T03:29:55.747Z,23.20
2018-08-08T03:32:23.886Z,23.10
2018-08-08T03:34:52.010Z,23.10
2018-08-08T03:37:20.127Z,23.10
2018-08-08T03:39:48.227Z,23.20
2018-08-08T03:42:16.365Z,23.10
2018-08-08T03:44:44.482Z,23.00
2018-08-08T03:47:12.595Z,23.10
2018-08-08T03:49:40.734Z,22.90
2018-08-08T03:52:08.851Z,23.00
2018-08-08T03:54:36.984Z,23.10
2018-08-08T03:57:05.235Z,23.00
2018-08-08T03:59:33.339Z,23.00
2018-08-08T04:02:01.458Z,22.90
2018-08-08T04:04:29.554Z,22.90
2018-08-08T04:06:58.775Z,22.80
2018-08-08T04:09:26.949Z,22.70
2018-08-08T04:11:55.076Z,22.80
2018-08-08T04:14:23.170Z,22.80
2018-08-08T04:16:51.281Z,22.70
2018-08-08T04:19:19.382Z,22.70
2018-08-08T04:21:47.683Z,22.90
2018-08-08T04:24:15.842Z,22.90
2018-08-08T04:26:43.918Z,23.00
2018-08-08T04:29:12.015Z,23.10
2018-08-08T04:31:40.139Z,23.20
2018-08-08T04:34:08.248Z,23.20
2018-08-08T04:36:36.399Z,23.20
2018-08-08T04:39:06.858Z,23.30
2018-08-08T04:41:34.990Z,23.40
2018-08-08T04:44:03.099Z,23.50
2018-08-08T04:46:31.229Z,23.40
2018-08-08T04:48:59.400Z,23.40
2018-08-08T04:51:27.558Z,23.40
2018-08-08T04:53:55.669Z,23.40
2018-08-08T04:56:23.775Z,23.40
2018-08-08T04:58:51.904Z,23.40
2018-08-08T05:01:20.037Z,23.30
2018-08-08T05:03:48.171Z,23.20
2018-08-08T05:06:16.300Z,23.20
2018-08-08T05:08:44.417Z,23.20
2018-08-08T05:11:12.531Z,23.20
2018-08-08T05:13:40.910Z,23.30
2018-08-08T05:16:09.018Z,23.30
2018-08-08T05:18:37.118Z,23.40
2018-08-08T05:21:05.225Z,23.40
2018-08-08T05:23:33.345Z,23.40
2018-08-08T05:26:01.458Z,23.40
2018-08-08T05:28:29.582Z,23.50
2018-08-08T05:30:57.701Z,23.70
2018-08-08T05:33:25.838Z,23.60
2018-08-08T05:35:53.990Z,23.60
2018-08-08T05:38:22.115Z,23.60
2018-08-08T05:40:50.234Z,23.60
2018-08-08T05:43:18.355Z,23.70
2018-08-08T05:45:46.474Z,23.70
2018-08-08T05:48:14.618Z,23.90
2018-08-08T05:50:42.726Z,24.10
2018-08-08T05:53:10.855Z,24.30
2018-08-08T05:55:38.986Z,24.60
2018-08-08T05:58:08.031Z,24.90
2018-08-08T06:00:36.182Z,25.10
2018-08-08T06:03:04.332Z,25.30
2018-08-08T06:05:32.461Z,25.60
2018-08-08T06:08:00.630Z,25.70
2018-08-08T06:10:28.814Z,25.80
2018-08-08T06:12:56.947Z,25.80
2018-08-08T06:15:25.063Z,25.80
2018-08-08T06:17:53.193Z,25.70
2018-08-08T06:20:22.238Z,25.60
2018-08-08T06:22:50.747Z,25.40
2018-08-08T06:25:18.916Z,25.20
2018-08-08T06:27:47.268Z,25.20
2018-08-08T06:30:18.494Z,25.10
2018-08-08T06:32:46.687Z,25.20
2018-08-08T06:35:15.734Z,25.20
2018-08-08T06:37:43.863Z,25.10
2018-08-08T06:40:12.738Z,25.20
2018-08-08T06:42:41.098Z,25.20
2018-08-08T06:45:12.015Z,25.20
2018-08-08T06:47:41.029Z,25.30
2018-08-08T06:50:09.773Z,25.20
2018-08-08T06:52:38.509Z,25.20
2018-08-08T06:55:07.765Z,25.10
2018-08-08T06:57:35.890Z,25.20
2018-08-08T07:00:07.378Z,25.20
2018-08-08T07:02:35.482Z,25.10
2018-08-08T07:05:04.454Z,25.10
2018-08-08T07:07:32.575Z,25.00
2018-08-08T07:10:00.700Z,25.00
2018-08-08T07:12:28.822Z,25.00
2018-08-08T07:14:57.543Z,24.90
2018-08-08T07:17:25.657Z,24.90
2018-08-08T07:19:53.822Z,24.80
2018-08-08T07:22:22.023Z,24.80
2018-08-08T07:24:50.196Z,24.80
2018-08-08T07:27:18.366Z,24.80
2018-08-08T07:29:46.615Z,24.80
2018-08-08T07:32:14.801Z,24.80
2018-08-08T07:34:43.098Z,24.80
2018-08-08T07:37:11.850Z,24.80
2018-08-08T07:39:40.078Z,24.80
2018-08-08T07:42:08.347Z,24.80
2018-08-08T07:44:36.598Z,24.80
2018-08-08T07:47:05.039Z,24.70
2018-08-08T07:49:33.240Z,24.70
2018-08-08T07:52:02.425Z,24.60
2018-08-08T07:54:30.797Z,24.60
2018-08-08T07:56:59.127Z,24.50
2018-08-08T07:59:27.306Z,24.40
2018-08-08T08:01:55.419Z,24.30
2018-08-08T08:04:23.562Z,24.40
2018-08-08T08:06:51.682Z,24.50
2018-08-08T08:09:19.835Z,24.50
2018-08-08T08:11:48.518Z,24.70
2018-08-08T08:14:16.662Z,24.80
2018-08-08T08:16:44.955Z,25.20
2018-08-08T08:19:13.083Z,25.40
2018-08-08T08:21:41.209Z,25.50
2018-08-08T08:24:09.339Z,25.60
2018-08-08T08:26:37.515Z,25.60
2018-08-08T08:29:05.866Z,25.60
2018-08-08T08:31:34.092Z,25.60
2018-08-08T08:34:02.441Z,25.70
2018-08-08T08:36:30.588Z,25.80
2018-08-08T08:38:58.698Z,26.00
2018-08-08T08:41:26.827Z,26.40
2018-08-08T08:43:54.942Z,26.70
2018-08-08T08:46:23.071Z,27.10
2018-08-08T08:48:51.234Z,27.70
2018-08-08T08:51:19.694Z,27.90
2018-08-08T08:53:47.818Z,28.00
2018-08-08T08:56:15.927Z,27.60
2018-08-08T08:58:44.038Z,27.40
2018-08-08T09:01:12.164Z,27.40
2018-08-08T09:03:40.313Z,27.50
2018-08-08T09:06:08.446Z,27.50
2018-08-08T09:08:36.554Z,27.50
2018-08-08T09:11:04.675Z,27.80
2018-08-08T09:13:32.905Z,27.90
2018-08-08T09:16:01.025Z,28.10
2018-08-08T09:18:29.130Z,28.00
2018-08-08T09:20:57.251Z,28.30
2018-08-08T09:23:25.378Z,28.90
2018-08-08T09:25:53.606Z,28.70
2018-08-08T09:28:21.744Z,28.70
2018-08-08T09:30:49.935Z,29.00
2018-08-08T09:33:23.334Z,29.00
2018-08-08T09:35:51.455Z,28.90
2018-08-08T09:38:19.659Z,28.90
2018-08-08T09:40:47.774Z,29.20
2018-08-08T09:43:15.886Z,29.40
2018-08-08T09:45:44.022Z,29.80
2018-08-08T09:48:12.140Z,29.60
2018-08-08T09:50:40.314Z,29.30
2018-08-08T09:53:08.435Z,30.00
2018-08-08T09:55:36.566Z,30.20
2018-08-08T09:58:04.674Z,30.30
2018-08-08T10:00:38.779Z,29.90
2018-08-08T10:03:11.014Z,29.30
2018-08-08T10:05:40.119Z,29.40
2018-08-08T10:08:08.247Z,29.40
2018-08-08T10:10:36.424Z,29.70
2018-08-08T10:13:04.551Z,29.80
2018-08-08T10:15:32.735Z,30.00
2018-08-08T10:18:00.929Z,30.30
2018-08-08T10:20:29.502Z,30.50
2018-08-08T10:22:57.644Z,30.30
2018-08-08T10:25:25.757Z,30.00
2018-08-08T10:27:53.917Z,29.70
2018-08-08T10:30:22.746Z,29.80
2018-08-08T10:32:50.893Z,29.90
2018-08-08T10:35:19.046Z,30.10
2018-08-08T10:37:47.471Z,30.20
2018-08-08T10:40:15.592Z,30.20
2018-08-08T10:42:43.728Z,30.10
2018-08-08T10:45:11.863Z,30.50
2018-08-08T10:47:40.306Z,30.50
2018-08-08T10:50:08.442Z,30.80
2018-08-08T10:52:36.934Z,30.60
2018-08-08T10:55:06.699Z,30.60
2018-08-08T10:57:35.003Z,30.10
2018-08-08T11:00:03.205Z,30.10
2018-08-08T11:02:31.366Z,30.00
2018-08-08T11:04:59.474Z,30.30
2018-08-08T11:07:27.629Z,30.80
2018-08-08T11:09:55.737Z,30.60
2018-08-08T11:12:23.935Z,30.80
2018-08-08T11:14:52.045Z,31.10
2018-08-08T11:17:20.211Z,30.90
2018-08-08T11:19:48.331Z,30.40
2018-08-08T11:22:16.478Z,30.40
2018-08-08T11:24:44.635Z,29.80
2018-08-08T11:27:12.767Z,29.50
2018-08-08T11:29:40.924Z,29.40
2018-08-08T11:32:09.043Z,29.50
2018-08-08T11:34:37.243Z,29.60
2018-08-08T11:37:05.702Z,29.30
2018-08-08T11:39:33.812Z,29.10
2018-08-08T11:42:01.921Z,28.90
2018-08-08T11:44:30.103Z,28.60
2018-08-08T11:46:58.311Z,28.10
2018-08-08T11:49:26.422Z,27.70
2018-08-08T11:51:54.543Z,27.60
2018-08-08T11:54:23.462Z,27.40
2018-08-08T11:56:51.570Z,27.30
2018-08-08T11:59:19.688Z,27.30
2018-08-08T12:01:47.808Z,27.40
2018-08-08T12:04:15.922Z,27.40
2018-08-08T12:06:44.031Z,27.20
2018-08-08T12:09:12.186Z,27.20
2018-08-08T12:11:40.578Z,27.20
2018-08-08T12:14:08.786Z,27.10
2018-08-08T12:16:36.898Z,27.10
2018-08-08T12:19:05.118Z,27.00
2018-08-08T12:21:33.171Z,27.00
2018-08-08T12:24:01.347Z,27.10
2018-08-08T12:26:29.461Z,27.10
2018-08-08T12:28:57.645Z,27.00
2018-08-08T12:31:25.813Z,27.30
2018-08-08T12:33:54.226Z,27.70
2018-08-08T12:36:22.367Z,27.70
2018-08-08T12:38:50.505Z,27.80
2018-08-08T12:41:18.685Z,27.90
2018-08-08T12:43:46.814Z,28.10
2018-08-08T12:46:14.977Z,28.30
2018-08-08T12:48:43.067Z,28.30
2018-08-08T12:51:11.252Z,28.40
2018-08-08T12:53:39.334Z,28.60
2018-08-08T12:56:07.532Z,28.80
2018-08-08T12:58:35.682Z,28.80
2018-08-08T13:01:03.802Z,28.80
2018-08-08T13:03:31.976Z,28.80
2018-08-08T13:06:00.095Z,28.90
2018-08-08T13:08:28.257Z,29.20
2018-08-08T13:10:56.342Z,29.70
2018-08-08T13:13:24.465Z,29.80
2018-08-08T13:15:52.660Z,29.50
2018-08-08T13:18:20.774Z,29.20
2018-08-08T13:20:48.903Z,29.00
2018-08-08T13:23:17.033Z,29.20
2018-08-08T13:25:45.192Z,29.20
2018-08-08T13:28:13.303Z,29.20
2018-08-08T13:30:41.443Z,29.30
2018-08-08T13:33:09.583Z,29.50
2018-08-08T13:35:37.707Z,29.70
2018-08-08T13:38:05.854Z,29.40
2018-08-08T13:40:34.055Z,29.40
2018-08-08T13:43:02.175Z,29.30
2018-08-08T13:45:30.350Z,29.00
2018-08-08T13:47:58.637Z,28.80
2018-08-08T13:50:26.894Z,28.90
2018-08-08T13:52:55.227Z,28.80
2018-08-08T13:55:23.351Z,28.90
2018-08-08T13:57:51.458Z,28.80
2018-08-08T14:00:19.859Z,29.00
2018-08-08T14:02:48.032Z,29.30
2018-08-08T14:05:16.165Z,29.40
2018-08-08T14:07:44.290Z,29.30
2018-08-08T14:10:19.226Z,29.30
2018-08-08T14:12:47.428Z,29.30
2018-08-08T14:15:15.555Z,29.20
2018-08-08T14:17:43.674Z,29.00
2018-08-08T14:20:12.599Z,29.30
2018-08-08T14:22:40.751Z,29.50
2018-08-08T14:25:09.151Z,29.40
2018-08-08T14:27:37.358Z,29.20
2018-08-08T14:30:06.007Z,29.10
2018-08-08T14:32:34.512Z,29.20
2018-08-08T14:35:02.868Z,29.20
2018-08-08T14:37:30.970Z,29.40
2018-08-08T14:39:59.224Z,29.30
2018-08-08T14:42:27.339Z,29.30
2018-08-08T14:44:55.460Z,29.40
2018-08-08T14:47:23.665Z,29.50
2018-08-08T14:49:51.722Z,29.50
2018-08-08T14:52:19.867Z,29.50
2018-08-08T14:54:47.997Z,29.40
2018-08-08T14:57:16.142Z,29.50
2018-08-08T14:59:44.327Z,29.30
2018-08-08T15:02:12.492Z,29.30
2018-08-08T15:04:40.647Z,29.40
2018-08-08T15:07:09.011Z,29.30
2018-08-08T15:09:37.112Z,29.20
2018-08-08T15:12:05.256Z,29.00
2018-08-08T15:14:35.931Z,28.90
2018-08-08T15:17:07.897Z,28.70
2018-08-08T15:19:36.869Z,28.50
2018-08-08T15:22:06.270Z,28.50
2018-08-08T15:24:36.894Z,28.30
2018-08-08T15:27:06.462Z,28.40
2018-08-08T15:29:35.538Z,28.60
2018-08-08T15:32:06.109Z,28.90
2018-08-08T15:34:35.517Z,29.20
2018-08-08T15:37:05.671Z,29.50
2018-08-08T15:39:34.825Z,29.60
2018-08-08T15:42:03.988Z,29.40
2018-08-08T15:44:33.921Z,29.30
2018-08-08T15:47:03.496Z,29.30
2018-08-08T15:49:32.738Z,29.10
2018-08-08T15:52:02.314Z,28.90
2018-08-08T15:54:31.903Z,28.80
2018-08-08T15:57:01.962Z,28.50
2018-08-08T15:59:31.425Z,28.40
2018-08-08T16:02:01.005Z,28.50
2018-08-08T16:04:30.664Z,28.40
2018-08-08T16:07:00.260Z,28.30
2018-08-08T16:09:32.007Z,28.40
2018-08-08T16:12:02.105Z,28.60
2018-08-08T16:14:32.422Z,28.80
2018-08-08T16:17:02.296Z,28.60
2018-08-08T16:19:32.703Z,28.50
2018-08-08T16:22:03.902Z,28.30
2018-08-08T16:24:33.468Z,28.20
2018-08-08T16:27:03.235Z,28.10
2018-08-08T16:29:32.673Z,28.10
2018-08-08T16:32:02.042Z,28.00
2018-08-08T16:34:32.866Z,27.90
2018-08-08T16:37:03.754Z,27.80
2018-08-08T16:39:33.152Z,27.70
2018-08-08T16:42:03.262Z,27.70
2018-08-08T16:44:32.949Z,27.70
2018-08-08T16:47:02.474Z,27.70
2018-08-08T16:49:32.114Z,27.70
2018-08-08T16:52:02.197Z,27.40
2018-08-08T16:54:32.224Z,27.30
2018-08-08T16:57:01.718Z,27.30
2018-08-08T16:59:31.465Z,27.20
2018-08-08T17:02:02.447Z,27.00
2018-08-08T17:04:31.812Z,27.00
2018-08-08T17:07:00.148Z,27.00
2018-08-08T17:09:28.994Z,27.00
2018-08-08T17:11:57.713Z,27.00
2018-08-08T17:14:27.436Z,26.90
2018-08-08T17:16:56.661Z,26.90
2018-08-08T17:19:25.413Z,26.80
2018-08-08T17:21:55.152Z,26.70
2018-08-08T17:24:24.448Z,26.70
2018-08-08T17:26:53.680Z,26.60
2018-08-08T17:29:22.254Z,26.50
2018-08-08T17:31:51.503Z,26.40
2018-08-08T17:34:21.148Z,26.40
2018-08-08T17:36:49.782Z,26.40
2018-08-08T17:39:19.559Z,26.40
2018-08-08T17:41:47.974Z,26.20
2018-08-08T17:44:16.282Z,26.20
2018-08-08T17:46:45.243Z,26.10
2018-08-08T17:49:14.139Z,26.00
2018-08-08T17:51:42.955Z,26.00
2018-08-08T17:54:11.943Z,26.00
2018-08-08T17:56:40.899Z,25.90
2018-08-08T17:59:09.445Z,25.90
2018-08-08T18:01:38.316Z,25.90
2018-08-08T18:04:07.338Z,25.90
2018-08-08T18:06:36.078Z,25.90
2018-08-08T18:09:07.302Z,25.90
2018-08-08T18:11:35.446Z,25.90
2018-08-08T18:14:03.595Z,25.90
2018-08-08T18:16:31.705Z,25.90
2018-08-08T18:18:59.823Z,25.80
2018-08-08T18:21:27.960Z,25.70
2018-08-08T18:24:02.666Z,25.70
2018-08-08T18:26:32.166Z,25.50
2018-08-08T18:29:00.291Z,25.40
2018-08-08T18:31:28.415Z,25.40
2018-08-08T18:33:56.582Z,25.30
2018-08-08T18:36:24.905Z,25.20
2018-08-08T18:38:53.025Z,25.20
2018-08-08T18:41:21.132Z,25.20
2018-08-08T18:43:49.334Z,25.10
2018-08-08T18:46:17.714Z,25.10
2018-08-08T18:48:45.861Z,25.00
2018-08-08T18:51:13.970Z,24.90
2018-08-08T18:53:42.091Z,24.90
2018-08-08T18:56:10.243Z,24.90
2018-08-08T18:58:38.368Z,24.90
2018-08-08T19:01:06.787Z,24.80
2018-08-08T19:03:34.972Z,24.70
2018-08-08T19:06:03.079Z,24.60
2018-08-08T19:08:31.214Z,24.60
2018-08-08T19:11:00.072Z,24.50
2018-08-08T19:13:28.209Z,24.40
2018-08-08T19:15:56.330Z,24.50
2018-08-08T19:18:24.458Z,24.50
2018-08-08T19:20:52.578Z,24.40
2018-08-08T19:23:20.705Z,24.30
2018-08-08T19:25:48.821Z,24.30
2018-08-08T19:28:16.963Z,24.30
2018-08-08T19:30:45.107Z,24.20
2018-08-08T19:33:13.206Z,24.10
2018-08-08T19:35:41.563Z,24.10
2018-08-08T19:38:09.662Z,24.00
2018-08-08T19:40:37.768Z,23.90
2018-08-08T19:43:06.075Z,23.90
2018-08-08T19:45:34.567Z,23.90
2018-08-08T19:48:02.754Z,23.80
2018-08-08T19:50:30.867Z,23.70
2018-08-08T19:52:59.185Z,23.70
2018-08-08T19:55:27.342Z,23.70
2018-08-08T19:57:55.434Z,23.60
2018-08-08T20:00:23.559Z,23.60
2018-08-08T20:02:51.659Z,23.40
2018-08-08T20:05:19.763Z,23.40
2018-08-08T20:07:47.875Z,23.40
2018-08-08T20:10:16.011Z,23.30
2018-08-08T20:12:44.216Z,23.30
2018-08-08T20:15:12.343Z,23.20
2018-08-08T20:17:40.450Z,23.20
2018-08-08T20:20:08.570Z,23.10
2018-08-08T20:22:36.699Z,23.10
2018-08-08T20:25:04.877Z,23.10
2018-08-08T20:27:32.937Z,23.10
2018-08-08T20:30:01.062Z,23.00
2018-08-08T20:32:29.163Z,23.00
2018-08-08T20:34:57.282Z,22.90
2018-08-08T20:37:25.392Z,22.90
2018-08-08T20:39:53.502Z,22.90
2018-08-08T20:42:21.624Z,22.80
2018-08-08T20:44:49.804Z,22.70
2018-08-08T20:47:17.845Z,22.70
2018-08-08T20:49:45.969Z,22.60
2018-08-08T20:52:14.097Z,22.50
2018-08-08T20:54:42.219Z,22.50
2018-08-08T20:57:10.329Z,22.40
2018-08-08T20:59:38.459Z,22.40
2018-08-08T21:02:06.573Z,22.40
2018-08-08T21:04:34.745Z,22.30
2018-08-08T21:07:02.879Z,22.30
2018-08-08T21:09:30.992Z,22.20
2018-08-08T21:11:59.113Z,22.20
2018-08-08T21:14:27.234Z,22.10
2018-08-08T21:16:55.364Z,22.00
2018-08-08T21:19:23.492Z,21.90
2018-08-08T21:21:51.607Z,21.80
2018-08-08T21:24:19.728Z,21.70
2018-08-08T21:26:47.847Z,21.60
2018-08-08T21:29:15.974Z,21.50
2018-08-08T21:31:44.107Z,21.40
2018-08-08T21:34:12.223Z,21.30
2018-08-08T21:36:40.343Z,21.30
2018-08-08T21:39:10.086Z,21.20
2018-08-08T21:41:38.210Z,21.10
2018-08-08T21:44:06.338Z,21.10
2018-08-08T21:46:34.689Z,20.90
2018-08-08T21:49:02.817Z,20.90
2018-08-08T21:51:30.950Z,20.80
2018-08-08T21:54:10.404Z,20.60
2018-08-08T21:56:50.368Z,20.50
2018-08-08T21:59:30.171Z,20.50
2018-08-08T22:02:09.768Z,20.40
2018-08-08T22:04:49.586Z,20.30
2018-08-08T22:07:29.190Z,20.30
2018-08-08T22:10:08.827Z,20.30
2018-08-08T22:12:48.251Z,20.20
2018-08-08T22:15:28.259Z,20.20
2018-08-08T22:18:07.935Z,20.20
2018-08-08T22:20:36.039Z,20.20
2018-08-08T22:23:04.174Z,20.20
2018-08-08T22:25:32.286Z,20.10
2018-08-08T22:28:00.410Z,19.90
2018-08-08T22:30:28.544Z,19.90
2018-08-08T22:32:56.732Z,19.90
2018-08-08T22:35:24.790Z,19.80
2018-08-08T22:37:52.906Z,19.70
2018-08-08T22:40:21.027Z,19.70
2018-08-08T22:42:49.176Z,19.70
2018-08-08T22:45:17.276Z,19.70
2018-08-08T22:47:45.394Z,19.70
2018-08-08T22:50:13.554Z,19.60
2018-08-08T22:52:41.770Z,19.60
2018-08-08T22:55:09.895Z,19.50
2018-08-08T22:57:38.015Z,19.40
2018-08-08T23:00:08.528Z,19.40
2018-08-08T23:02:36.653Z,19.30
2018-08-08T23:05:05.323Z,19.20
2018-08-08T23:07:33.532Z,19.20
2018-08-08T23:10:01.668Z,19.10
2018-08-08T23:12:30.426Z,19.10
2018-08-08T23:14:58.534Z,19.00
2018-08-08T23:17:26.643Z,19.00
2018-08-08T23:19:54.780Z,19.00
2018-08-08T23:22:34.486Z,18.80
2018-08-08T23:25:02.609Z,18.70
2018-08-08T23:27:30.722Z,18.50
2018-08-08T23:29:58.838Z,18.40
2018-08-08T23:32:26.951Z,18.30
2018-08-08T23:34:55.075Z,18.30
2018-08-08T23:37:23.194Z,18.20
2018-08-08T23:39:51.309Z,18.20
2018-08-08T23:42:19.427Z,18.20
2018-08-08T23:44:47.547Z,18.20
2018-08-08T23:47:15.654Z,18.20
2018-08-08T23:49:43.774Z,18.20
2018-08-08T23:52:11.947Z,18.20
2018-08-08T23:54:40.122Z,18.30
2018-08-08T23:57:08.234Z,18.30
2018-08-08T23:59:36.687Z,18.30
